Time;durP1;ratioP1;P1;durP2;ratioP2;P2;SDS_P1;SDS_P2;PMS_P1;PMS_P2;Temp;Humidity;BMP_temperature;BMP_pressure;BME280_temperature;BME280_humidity;BME280_pressure;Samples;Min_cycle;Max_cycle;Signal;HPM_P1;HPM_P2
2021/06/24 00:03:36;;;;;;;4.50;4.03;;;18.80;99.90;;;;;;10477884;28;20323;-81
2021/06/24 00:08:40;;;;;;;4.60;4.30;;;18.80;99.90;;;;;;10488233;28;20275;-84
2021/06/24 00:13:43;;;;;;;4.00;3.70;;;18.80;99.90;;;;;;10461220;28;20224;-84
2021/06/24 00:18:45;;;;;;;5.30;3.97;;;18.80;99.90;;;;;;10494225;28;20675;-82
2021/06/24 00:23:49;;;;;;;3.67;3.47;;;18.80;99.90;;;;;;10479418;28;20661;-84
2021/06/24 00:28:51;;;;;;;3.93;3.73;;;18.90;99.90;;;;;;10476888;28;20203;-83
2021/06/24 00:33:53;;;;;;;4.00;3.70;;;18.80;99.90;;;;;;10479630;28;20265;-84
2021/06/24 00:38:57;;;;;;;5.13;4.83;;;18.90;99.90;;;;;;10485902;28;20565;-84
2021/06/24 00:43:59;;;;;;;4.83;4.40;;;18.80;99.90;;;;;;10467881;28;20217;-84
2021/06/24 00:49:03;;;;;;;6.00;5.50;;;18.90;99.90;;;;;;10504375;28;20661;-84
2021/06/24 00:54:08;;;;;;;6.53;6.03;;;18.90;99.90;;;;;;10469632;28;20216;-84
2021/06/24 00:59:10;;;;;;;5.97;5.57;;;18.90;99.90;;;;;;10492451;28;20274;-84
2021/06/24 01:04:13;;;;;;;7.00;6.50;;;19.00;99.90;;;;;;10465982;28;20747;-84
2021/06/24 01:09:16;;;;;;;7.00;6.50;;;19.00;99.90;;;;;;10472861;28;20624;-84
2021/06/24 01:14:18;;;;;;;7.00;6.50;;;19.00;99.90;;;;;;10491107;28;20247;-84
2021/06/24 01:19:21;;;;;;;7.20;6.60;;;19.10;99.90;;;;;;10474583;28;20228;-84
2021/06/24 01:24:25;;;;;;;7.03;6.63;;;19.10;99.90;;;;;;10480964;28;20235;-84
2021/06/24 01:29:27;;;;;;;7.03;6.63;;;19.20;99.90;;;;;;10486403;28;20201;-84
2021/06/24 01:34:30;;;;;;;6.77;6.30;;;19.10;99.90;;;;;;10448378;28;20579;-84
2021/06/24 01:39:34;;;;;;;6.30;5.90;;;19.20;99.90;;;;;;10508738;28;20240;-83
2021/06/24 01:44:38;;;;;;;6.20;5.77;;;19.30;99.90;;;;;;10489915;28;20648;-84
2021/06/24 01:49:41;;;;;;;5.70;5.30;;;19.20;99.90;;;;;;10500362;28;20678;-82
2021/06/24 01:54:47;;;;;;;6.43;5.87;;;19.20;99.90;;;;;;10501392;28;20211;-84
2021/06/24 01:59:50;;;;;;;5.83;5.43;;;19.10;99.90;;;;;;10487559;28;20227;-82
2021/06/24 02:04:53;;;;;;;5.67;5.30;;;19.10;99.90;;;;;;10503915;28;20299;-84
2021/06/24 02:10:09;;;;;;;6.70;6.00;;;19.00;99.90;;;;;;10499323;28;20224;-84
2021/06/24 02:15:20;;;;;;;6.13;5.23;;;18.90;99.90;;;;;;10484555;28;20201;-84
2021/06/24 02:20:23;;;;;;;4.90;4.60;;;18.70;99.90;;;;;;10482830;28;20224;-83
2021/06/24 02:25:37;;;;;;;6.73;6.30;;;18.70;99.90;;;;;;10500339;28;20204;-81
2021/06/24 02:30:49;;;;;;;5.53;5.13;;;18.60;99.90;;;;;;10486473;28;20220;-84
2021/06/24 02:35:57;;;;;;;6.30;5.20;;;18.50;99.90;;;;;;10477089;28;20208;-83
2021/06/24 02:41:04;;;;;;;5.07;4.77;;;18.50;99.90;;;;;;10500665;28;20608;-82
2021/06/24 02:46:08;;;;;;;5.37;5.00;;;18.60;99.90;;;;;;10499198;28;20724;-83
2021/06/24 02:51:16;;;;;;;5.33;4.90;;;18.60;99.90;;;;;;10465988;28;20217;-81
2021/06/24 02:56:41;;;;;;;5.90;5.30;;;18.50;99.90;;;;;;10459788;28;20197;-83
2021/06/24 03:02:04;;;;;;;4.90;4.50;;;18.50;99.90;;;;;;10496484;28;20232;-82
2021/06/24 03:07:10;;;;;;;4.97;4.67;;;18.40;99.90;;;;;;10502202;28;20231;-81
2021/06/24 03:12:37;;;;;;;5.40;5.10;;;18.40;99.90;;;;;;10502134;28;20263;-83
2021/06/24 03:17:39;;;;;;;6.73;5.20;;;18.50;99.90;;;;;;10500002;28;20204;-80
2021/06/24 03:22:42;;;;;;;5.60;5.10;;;18.50;99.90;;;;;;10516300;28;20323;-83
2021/06/24 03:27:46;;;;;;;7.53;6.90;;;18.40;99.90;;;;;;10505029;28;20200;-83
2021/06/24 03:33:14;;;;;;;8.57;6.40;;;18.50;99.90;;;;;;10498568;28;20228;-82
2021/06/24 03:38:17;;;;;;;6.10;5.60;;;18.50;99.90;;;;;;10456177;28;20193;-80
2021/06/24 03:43:21;;;;;;;5.37;4.97;;;18.60;99.90;;;;;;10492128;28;20696;-80
2021/06/24 03:48:24;;;;;;;9.63;4.80;;;18.60;99.90;;;;;;10497528;28;20209;-81
2021/06/24 03:53:37;;;;;;;5.80;5.40;;;18.60;99.90;;;;;;10494777;28;20304;-81
2021/06/24 03:58:41;;;;;;;5.13;4.73;;;18.50;99.90;;;;;;10479647;28;20204;-80
2021/06/24 04:03:45;;;;;;;5.30;4.97;;;18.60;99.90;;;;;;10494039;28;20621;-82
2021/06/24 04:08:51;;;;;;;5.17;4.77;;;18.60;99.90;;;;;;10498992;28;20204;-81
2021/06/24 04:13:58;;;;;;;4.20;3.93;;;18.80;99.90;;;;;;10495133;28;20231;-82
2021/06/24 04:19:26;;;;;;;6.00;4.50;;;18.80;99.90;;;;;;10495431;28;20536;-80
2021/06/24 04:24:30;;;;;;;5.53;5.13;;;19.00;99.90;;;;;;10500900;28;20256;-82
2021/06/24 04:29:34;;;;;;;6.37;5.70;;;19.10;99.90;;;;;;10499722;28;20217;-81
2021/06/24 04:34:36;;;;;;;4.80;4.50;;;19.20;99.90;;;;;;10461262;28;20225;-83
2021/06/24 04:39:44;;;;;;;5.50;5.07;;;19.40;99.90;;;;;;10457365;28;20221;-83
2021/06/24 04:44:47;;;;;;;4.73;4.43;;;19.50;99.90;;;;;;10475928;28;20275;-83
2021/06/24 04:49:50;;;;;;;4.53;4.17;;;19.60;99.90;;;;;;10474527;28;20232;-83
2021/06/24 04:55:03;;;;;;;4.07;3.80;;;19.70;99.90;;;;;;10476046;28;20205;-82
2021/06/24 05:00:10;;;;;;;4.07;3.87;;;19.80;99.90;;;;;;10491533;28;20228;-82
2021/06/24 05:05:50;;;;;;;3.97;3.77;;;20.00;99.90;;;;;;10503485;28;20218;-83
2021/06/24 05:10:53;;;;;;;4.83;3.50;;;20.20;99.90;;;;;;10559644;22;20230;-80
2021/06/24 05:15:56;;;;;;;3.50;3.30;;;20.30;99.90;;;;;;10571951;28;20578;-80
2021/06/24 05:20:59;;;;;;;3.83;3.53;;;20.40;99.90;;;;;;10575691;28;20230;-79
2021/06/24 05:26:01;;;;;;;3.27;3.07;;;20.60;99.90;;;;;;10580181;28;20734;-80
2021/06/24 05:31:05;;;;;;;3.10;2.90;;;20.80;99.90;;;;;;10587965;28;20243;-79
2021/06/24 05:36:07;;;;;;;3.70;3.50;;;20.90;99.90;;;;;;10591672;28;20231;-80
2021/06/24 05:41:10;;;;;;;3.30;3.00;;;20.90;99.90;;;;;;10588655;28;20231;-80
2021/06/24 05:46:13;;;;;;;4.37;4.07;;;20.90;99.90;;;;;;10587212;28;20203;-80
2021/06/24 05:51:15;;;;;;;4.60;3.33;;;21.10;99.90;;;;;;10584208;28;20219;-80
2021/06/24 05:56:19;;;;;;;3.43;3.23;;;21.10;99.90;;;;;;10583881;28;20278;-79
2021/06/24 06:01:23;;;;;;;3.00;2.80;;;21.20;99.90;;;;;;10586206;28;20242;-80
2021/06/24 06:06:25;;;;;;;3.50;3.30;;;21.30;99.90;;;;;;10585265;28;20194;-80
2021/06/24 06:11:27;;;;;;;4.60;4.30;;;21.30;99.90;;;;;;10599800;27;20222;-79
2021/06/24 06:16:31;;;;;;;4.03;3.73;;;21.40;99.90;;;;;;10607615;27;20297;-79
2021/06/24 06:21:33;;;;;;;4.40;4.10;;;21.50;99.90;;;;;;10585706;27;20242;-79
2021/06/24 06:26:35;;;;;;;3.50;3.30;;;21.70;99.90;;;;;;10628425;27;20281;-79
2021/06/24 06:31:39;;;;;;;2.90;2.70;;;21.70;99.90;;;;;;10627664;27;20301;-79
2021/06/24 06:36:41;;;;;;;4.03;3.83;;;21.80;99.90;;;;;;10608164;27;20198;-79
2021/06/24 06:41:43;;;;;;;3.50;3.30;;;22.10;99.90;;;;;;10623320;27;20302;-79
2021/06/24 06:46:47;;;;;;;5.00;4.60;;;22.40;99.90;;;;;;10605224;27;20233;-80
2021/06/24 06:51:49;;;;;;;4.63;4.33;;;22.50;99.90;;;;;;10609075;27;20263;-80
2021/06/24 06:56:51;;;;;;;5.97;4.50;;;22.50;99.90;;;;;;10607451;27;20195;-80
2021/06/24 07:01:55;;;;;;;4.27;4.07;;;22.70;99.90;;;;;;10607180;27;20234;-80
2021/06/24 07:06:57;;;;;;;3.80;3.60;;;23.00;99.90;;;;;;10609427;27;20213;-80
2021/06/24 07:12:19;;;;;;;3.53;3.23;;;23.20;99.90;;;;;;10606317;27;20237;-80
2021/06/24 07:17:46;;;;;;;3.97;3.67;;;23.40;99.90;;;;;;10626018;27;20225;-80
2021/06/24 07:22:49;;;;;;;3.93;3.73;;;23.30;99.90;;;;;;10598811;27;20237;-80
2021/06/24 07:27:51;;;;;;;3.97;3.77;;;23.10;99.90;;;;;;10590706;27;20214;-79
2021/06/24 07:32:55;;;;;;;3.90;3.70;;;22.90;99.90;;;;;;10607929;27;20215;-80
2021/06/24 07:37:57;;;;;;;3.80;3.60;;;22.70;99.90;;;;;;10626194;27;20201;-80
2021/06/24 07:43:00;;;;;;;3.60;3.40;;;22.50;99.90;;;;;;10601707;27;20746;-79
2021/06/24 07:48:10;;;;;;;5.60;3.60;;;22.40;99.90;;;;;;10606645;27;20202;-80
2021/06/24 07:53:13;;;;;;;4.40;4.10;;;22.30;99.90;;;;;;10624836;27;20248;-79
2021/06/24 07:58:16;;;;;;;4.40;4.10;;;22.30;99.90;;;;;;10625016;27;20251;-80
2021/06/24 08:03:21;;;;;;;4.20;3.90;;;22.40;99.90;;;;;;10606503;27;20710;-80
2021/06/24 08:08:23;;;;;;;4.83;4.30;;;22.40;99.90;;;;;;10624052;27;20529;-80
2021/06/24 08:13:26;;;;;;;4.07;3.87;;;22.50;99.90;;;;;;10622517;27;20218;-80
2021/06/24 08:18:30;;;;;;;4.30;4.10;;;22.70;99.90;;;;;;10605087;28;20554;-80
2021/06/24 08:23:32;;;;;;;3.83;3.63;;;23.60;99.90;;;;;;10626424;28;20218;-79
2021/06/24 08:28:35;;;;;;;3.57;3.27;;;24.90;99.90;;;;;;10607727;28;20281;-80
2021/06/24 08:33:38;;;;;;;3.73;3.40;;;25.60;99.90;;;;;;10624905;28;20211;-80
2021/06/24 08:38:40;;;;;;;2.57;2.47;;;25.60;99.90;;;;;;10625313;28;20194;-80
2021/06/24 08:43:42;;;;;;;3.47;3.27;;;25.60;99.90;;;;;;10623289;28;20571;-80
2021/06/24 08:48:48;;;;;;;3.23;3.00;;;25.40;99.90;;;;;;10626152;28;20612;-80
2021/06/24 08:53:51;;;;;;;3.60;3.40;;;25.30;99.90;;;;;;10621529;28;20275;-80
2021/06/24 08:58:53;;;;;;;6.10;3.90;;;25.60;99.90;;;;;;10627392;27;20233;-79
2021/06/24 09:03:57;;;;;;;3.80;3.23;;;26.00;99.90;;;;;;10635321;27;20313;-80
2021/06/24 09:09:00;;;;;;;3.47;3.17;;;26.80;99.90;;;;;;10616903;27;20572;-80
2021/06/24 09:14:05;;;;;;;3.10;2.90;;;27.00;99.90;;;;;;10610774;27;20230;-80
2021/06/24 09:19:17;;;;;;;3.10;2.90;;;26.50;99.90;;;;;;10617080;27;20194;-80
2021/06/24 09:24:24;;;;;;;3.20;3.00;;;25.90;99.90;;;;;;10606634;27;20275;-80
2021/06/24 09:29:27;;;;;;;3.73;3.40;;;25.20;99.90;;;;;;10633441;27;20198;-80
2021/06/24 09:34:30;;;;;;;3.93;3.57;;;24.70;99.90;;;;;;10632760;27;20639;-80
2021/06/24 09:39:36;;;;;;;3.87;3.57;;;24.30;99.90;;;;;;10630534;27;20191;-80
2021/06/24 09:44:41;;;;;;;2.83;2.73;;;23.90;99.90;;;;;;10612519;27;20214;-80
2021/06/24 09:49:56;;;;;;;3.27;2.97;;;23.70;99.90;;;;;;10612447;27;20226;-80
2021/06/24 09:55:04;;;;;;;4.23;3.00;;;23.80;99.90;;;;;;10606243;27;20197;-80
2021/06/24 10:00:21;;;;;;;3.37;3.03;;;24.20;99.90;;;;;;10604595;27;20657;-80
2021/06/24 10:05:24;;;;;;;3.67;3.33;;;24.60;99.90;;;;;;10610709;27;20666;-81
2021/06/24 10:10:26;;;;;;;3.47;3.27;;;26.20;99.90;;;;;;10610046;27;20230;-80
2021/06/24 10:15:29;;;;;;;2.70;2.57;;;28.00;99.90;;;;;;10602193;27;20198;-80
2021/06/24 10:20:34;;;;;;;2.50;2.30;;;28.80;99.90;;;;;;10627527;27;20672;-81
2021/06/24 10:25:38;;;;;;;2.67;2.47;;;29.40;99.60;;;;;;10627936;27;20243;-81
2021/06/24 10:30:42;;;;;;;3.00;2.90;;;28.70;97.50;;;;;;10627512;27;20215;-80
2021/06/24 10:35:48;;;;;;;3.17;3.00;;;27.80;99.50;;;;;;10609233;27;20198;-80
2021/06/24 10:40:57;;;;;;;3.00;2.23;;;27.00;99.60;;;;;;10609876;27;20221;-80
2021/06/24 10:46:12;;;;;;;2.33;2.23;;;26.50;99.90;;;;;;10606349;27;20415;-80
2021/06/24 10:51:16;;;;;;;2.63;2.53;;;26.30;99.90;;;;;;10580893;27;20229;-79
2021/06/24 10:56:52;;;;;;;2.57;2.47;;;26.30;99.90;;;;;;10598505;27;20199;-80
2021/06/24 11:02:11;;;;;;;2.07;1.97;;;26.30;99.60;;;;;;10627776;27;20261;-80
2021/06/24 11:07:36;;;;;;;3.50;2.20;;;26.20;99.70;;;;;;10609374;27;20198;-80
2021/06/24 11:12:49;;;;;;;2.40;2.30;;;26.20;99.90;;;;;;10588561;22;20226;-82
2021/06/24 11:17:51;;;;;;;2.30;2.20;;;26.00;99.90;;;;;;10568040;28;20266;-84
2021/06/24 11:22:55;;;;;;;1.93;1.83;;;25.80;99.90;;;;;;10536992;28;20218;-84
2021/06/24 11:28:33;;;;;;;2.27;2.10;;;25.60;99.90;;;;;;10526982;28;20546;-84
2021/06/24 11:33:37;;;;;;;2.47;2.30;;;25.50;99.90;;;;;;10513837;28;20246;-84
2021/06/24 11:38:46;;;;;;;2.40;2.30;;;25.50;98.70;;;;;;10575265;28;20195;-82
2021/06/24 11:43:59;;;;;;;2.20;2.10;;;25.50;98.70;;;;;;10516027;28;20320;-83
2021/06/24 11:49:13;;;;;;;2.60;2.10;;;25.30;98.80;;;;;;10561908;28;20192;-82
2021/06/24 12:05:15;;;;;;;2.17;2.07;;;25.10;99.90;;;;;;10567549;28;20223;-81
2021/06/24 12:10:23;;;;;;;2.63;2.43;;;25.30;99.90;;;;;;10574521;28;20254;-81
2021/06/24 12:15:26;;;;;;;2.40;2.20;;;25.30;99.30;;;;;;10552813;28;20206;-80
2021/06/24 12:20:28;;;;;;;2.23;2.13;;;25.30;99.90;;;;;;10561389;28;20242;-80
2021/06/24 12:25:36;;;;;;;1.87;1.77;;;25.30;99.00;;;;;;10526948;28;20552;-82
2021/06/24 12:30:42;;;;;;;1.70;1.60;;;25.30;97.50;;;;;;10540100;28;20238;-81
2021/06/24 12:35:47;;;;;;;1.77;1.67;;;25.50;98.40;;;;;;10555058;28;20203;-80
2021/06/24 12:41:01;;;;;;;1.60;1.60;;;25.70;97.40;;;;;;10587935;28;20239;-84
2021/06/24 12:46:05;;;;;;;1.67;1.57;;;26.00;97.00;;;;;;10538874;28;20195;-80
2021/06/24 12:51:25;;;;;;;1.33;1.33;;;26.10;94.60;;;;;;10563568;28;20219;-83
2021/06/24 12:56:31;;;;;;;1.50;1.50;;;26.20;93.60;;;;;;10554229;28;20199;-83
2021/06/24 13:01:41;;;;;;;2.63;1.60;;;25.90;96.80;;;;;;10554999;28;20246;-83
2021/06/24 13:06:45;;;;;;;1.50;1.40;;;25.70;94.20;;;;;;10537322;28;20212;-84
2021/06/24 13:11:56;;;;;;;1.77;1.67;;;25.80;93.00;;;;;;10526481;28;20261;-85
2021/06/24 13:17:01;;;;;;;1.60;1.60;;;25.70;94.40;;;;;;10592487;28;20203;-84
2021/06/24 13:22:06;;;;;;;1.67;1.57;;;25.50;96.80;;;;;;10580959;28;20227;-82
2021/06/24 13:27:12;;;;;;;1.77;1.60;;;25.40;97.50;;;;;;10591343;28;20563;-82
2021/06/24 13:32:26;;;;;;;2.10;2.00;;;25.30;96.40;;;;;;10572667;28;20223;-83
2021/06/24 13:37:28;;;;;;;2.20;2.10;;;25.20;98.10;;;;;;10529574;28;20252;-84
2021/06/24 13:42:50;;;;;;;2.30;2.20;;;25.10;98.40;;;;;;10560627;28;20281;-83
2021/06/24 13:47:53;;;;;;;1.93;1.83;;;24.90;97.40;;;;;;10562670;28;20199;-82
2021/06/24 13:52:58;;;;;;;2.23;2.03;;;24.70;99.70;;;;;;10564954;28;20235;-83
2021/06/24 13:58:01;;;;;;;2.07;1.83;;;24.20;99.90;;;;;;10532253;28;20731;-82
2021/06/24 14:03:04;;;;;;;2.33;1.63;;;23.40;99.90;;;;;;10585080;28;20230;-81
2021/06/24 14:08:07;;;;;;;3.17;2.03;;;22.70;99.90;;;;;;10558975;28;20651;-82
2021/06/24 14:13:11;;;;;;;2.40;1.70;;;22.10;99.90;;;;;;10564779;28;20214;-81
2021/06/24 14:18:13;;;;;;;2.13;2.00;;;21.50;99.90;;;;;;10542263;28;20226;-81
2021/06/24 14:23:17;;;;;;;2.37;2.27;;;21.20;99.90;;;;;;10560642;28;20726;-82
2021/06/24 14:28:21;;;;;;;3.10;2.70;;;21.00;99.90;;;;;;10561395;28;20199;-83
2021/06/24 14:33:23;;;;;;;2.40;2.30;;;21.00;99.90;;;;;;10552312;28;20271;-82
2021/06/24 14:38:25;;;;;;;2.03;1.93;;;21.10;99.90;;;;;;10562389;28;20211;-81
2021/06/24 14:43:29;;;;;;;2.90;2.70;;;21.30;99.90;;;;;;10575005;28;20840;-81
2021/06/24 14:48:31;;;;;;;2.90;2.63;;;21.50;99.90;;;;;;10566495;28;20275;-83
2021/06/24 14:53:34;;;;;;;2.53;2.33;;;21.70;99.90;;;;;;10566151;28;20219;-82
2021/06/24 14:58:37;;;;;;;2.80;2.30;;;21.90;99.90;;;;;;10554612;28;20223;-82
2021/06/24 15:03:39;;;;;;;2.70;2.60;;;22.10;99.90;;;;;;10552612;28;20212;-81
2021/06/24 15:08:41;;;;;;;7.73;2.20;;;22.10;99.90;;;;;;10537195;28;20234;-82
2021/06/24 15:13:45;;;;;;;2.67;2.53;;;22.20;99.90;;;;;;10557940;28;20250;-81
2021/06/24 15:18:47;;;;;;;2.63;2.53;;;22.20;99.90;;;;;;10558511;28;20731;-83
2021/06/24 15:23:49;;;;;;;2.90;2.70;;;22.20;99.90;;;;;;10552096;28;20223;-82
2021/06/24 15:28:58;;;;;;;2.43;2.33;;;22.20;99.90;;;;;;10554581;28;20208;-82
2021/06/24 15:34:02;;;;;;;2.90;2.70;;;22.20;99.90;;;;;;10521743;28;20277;-82
2021/06/24 15:39:06;;;;;;;2.97;2.87;;;22.20;99.90;;;;;;10548543;28;20209;-82
2021/06/24 15:44:10;;;;;;;3.00;2.80;;;22.20;99.90;;;;;;10534939;28;20277;-84
2021/06/24 15:49:13;;;;;;;2.80;2.60;;;22.20;99.90;;;;;;10545739;28;20253;-83
2021/06/24 15:54:16;;;;;;;3.40;3.20;;;22.20;99.90;;;;;;10524414;28;20231;-84
2021/06/24 15:59:22;;;;;;;3.13;3.00;;;22.20;99.90;;;;;;10525501;28;20214;-82
2021/06/24 16:04:25;;;;;;;4.10;3.90;;;22.30;99.90;;;;;;10555098;28;20227;-82
2021/06/24 16:14:48;;;;;;;3.40;3.20;;;22.40;99.90;;;;;;10561350;28;20322;-83
2021/06/24 16:19:51;;;;;;;4.83;4.53;;;22.40;99.90;;;;;;10536685;28;20248;-83
2021/06/24 16:30:16;;;;;;;3.67;3.37;;;22.50;99.90;;;;;;10559634;28;20214;-82
2021/06/24 16:35:19;;;;;;;4.00;3.80;;;22.50;99.90;;;;;;10538800;28;20199;-83
2021/06/24 16:40:22;;;;;;;6.53;3.70;;;22.60;99.90;;;;;;10543451;28;20233;-82
2021/06/24 16:45:27;;;;;;;3.87;3.67;;;22.50;99.90;;;;;;10554534;28;20218;-83
2021/06/24 16:50:31;;;;;;;4.27;3.97;;;22.50;99.90;;;;;;10544344;28;20246;-83
2021/06/24 16:55:33;;;;;;;4.40;4.10;;;22.50;99.90;;;;;;10536315;28;20556;-83
2021/06/24 17:00:37;;;;;;;4.93;4.63;;;22.40;99.90;;;;;;10559736;28;20627;-84
2021/06/24 17:05:39;;;;;;;4.63;4.23;;;22.40;99.90;;;;;;10570738;28;20212;-83
2021/06/24 17:10:41;;;;;;;4.40;4.10;;;22.30;99.90;;;;;;10572300;22;20230;-81
2021/06/24 17:15:49;;;;;;;4.57;4.27;;;22.30;99.90;;;;;;10562116;28;20256;-80
2021/06/24 17:20:52;;;;;;;4.43;4.13;;;22.20;99.90;;;;;;10581797;28;20223;-80
2021/06/24 17:25:54;;;;;;;3.80;3.50;;;22.20;99.90;;;;;;10571250;28;20219;-80
2021/06/24 17:30:58;;;;;;;4.10;3.80;;;22.20;99.90;;;;;;10585308;28;20607;-80
2021/06/24 17:36:00;;;;;;;4.00;3.70;;;22.30;99.90;;;;;;10588559;28;20615;-81
2021/06/24 17:41:03;;;;;;;4.93;4.53;;;22.30;99.90;;;;;;10549512;28;20219;-80
2021/06/24 17:46:07;;;;;;;5.40;3.40;;;22.30;99.90;;;;;;10574372;28;20297;-80
2021/06/24 17:51:09;;;;;;;4.27;3.87;;;22.40;99.90;;;;;;10563486;28;20302;-80
2021/06/24 17:56:11;;;;;;;4.47;4.17;;;22.40;99.90;;;;;;10586871;28;20191;-80
2021/06/24 18:01:15;;;;;;;4.63;4.33;;;22.40;99.90;;;;;;10592146;28;20248;-81
2021/06/24 18:06:17;;;;;;;4.30;4.00;;;22.40;99.90;;;;;;10593816;28;20215;-81
2021/06/24 18:11:19;;;;;;;4.37;4.07;;;22.40;99.90;;;;;;10593276;28;20318;-81
2021/06/24 18:16:23;;;;;;;4.30;4.00;;;22.30;99.90;;;;;;10565161;28;20284;-81
2021/06/24 18:21:26;;;;;;;5.13;4.73;;;22.20;99.90;;;;;;10545332;28;20207;-80
2021/06/24 18:26:28;;;;;;;6.50;5.90;;;22.20;99.90;;;;;;10574865;28;20316;-81
2021/06/24 18:31:32;;;;;;;5.10;4.70;;;22.10;99.90;;;;;;10533045;28;20259;-81
2021/06/24 18:36:42;;;;;;;7.43;5.93;;;21.90;99.90;;;;;;10547746;28;20199;-80
2021/06/24 18:41:44;;;;;;;4.83;4.43;;;21.70;99.90;;;;;;10571159;28;20239;-81
2021/06/24 18:46:48;;;;;;;5.37;4.97;;;21.60;99.90;;;;;;10525940;28;20199;-81
2021/06/24 18:51:50;;;;;;;4.43;4.13;;;21.60;99.90;;;;;;10560800;28;20219;-80
2021/06/24 18:56:52;;;;;;;4.10;3.80;;;21.50;99.90;;;;;;10567967;28;20255;-81
2021/06/24 19:01:55;;;;;;;3.80;3.50;;;21.50;99.90;;;;;;10568993;28;20229;-80
2021/06/24 19:06:57;;;;;;;3.10;2.90;;;21.50;99.90;;;;;;10584932;28;20569;-80
2021/06/24 19:12:00;;;;;;;3.13;2.80;;;21.50;99.90;;;;;;10554886;28;20223;-81
2021/06/24 19:17:04;;;;;;;4.30;4.00;;;21.50;99.90;;;;;;10551020;28;20207;-80
2021/06/24 19:22:07;;;;;;;3.37;3.10;;;21.40;99.90;;;;;;10578392;28;20214;-81
2021/06/24 19:27:09;;;;;;;3.30;3.10;;;21.40;99.90;;;;;;10543591;28;20207;-81
2021/06/24 19:32:15;;;;;;;3.33;3.13;;;21.30;99.90;;;;;;10589270;28;20215;-80
2021/06/24 19:37:17;;;;;;;3.07;2.90;;;21.30;99.90;;;;;;10586588;28;20203;-80
2021/06/24 19:42:19;;;;;;;4.07;3.77;;;21.30;99.90;;;;;;10548235;28;20249;-80
2021/06/24 19:47:25;;;;;;;4.27;3.83;;;21.20;99.90;;;;;;10567776;28;20232;-80
2021/06/24 19:52:29;;;;;;;3.60;3.40;;;21.10;99.90;;;;;;10587899;28;20215;-80
2021/06/24 19:57:35;;;;;;;3.23;3.07;;;21.10;99.90;;;;;;10567953;28;20187;-80
2021/06/24 20:02:45;;;;;;;3.80;3.50;;;21.00;99.90;;;;;;10583804;28;20211;-80
2021/06/24 20:07:49;;;;;;;3.13;2.90;;;21.00;99.90;;;;;;10537310;28;20284;-80
2021/06/24 20:12:55;;;;;;;3.00;2.90;;;21.00;99.90;;;;;;10557120;28;20313;-80
2021/06/24 20:18:01;;;;;;;2.70;2.60;;;21.00;99.90;;;;;;10564909;28;20742;-80
2021/06/24 20:23:07;;;;;;;2.47;2.37;;;20.90;99.90;;;;;;10546883;28;20215;-80
2021/06/24 20:28:10;;;;;;;2.20;2.10;;;20.80;99.90;;;;;;10567247;28;20195;-80
2021/06/24 20:33:17;;;;;;;2.70;2.60;;;20.80;99.90;;;;;;10559622;28;20216;-81
2021/06/24 20:38:23;;;;;;;2.77;2.37;;;20.80;99.90;;;;;;10546535;28;20203;-80
2021/06/24 20:43:25;;;;;;;2.60;2.40;;;20.80;99.90;;;;;;10561540;28;20250;-81
2021/06/24 20:48:31;;;;;;;2.00;1.90;;;20.80;99.90;;;;;;10585768;28;20253;-81
2021/06/24 20:53:33;;;;;;;2.10;2.00;;;20.80;99.90;;;;;;10585472;28;20207;-81
2021/06/24 20:58:36;;;;;;;2.33;2.03;;;20.80;99.90;;;;;;10576815;28;20199;-81
2021/06/24 21:03:40;;;;;;;2.30;2.20;;;20.70;99.90;;;;;;10597052;28;20274;-80
2021/06/24 21:08:43;;;;;;;2.50;2.30;;;20.70;99.90;;;;;;10573407;28;20662;-81
2021/06/24 21:13:45;;;;;;;2.50;2.40;;;20.70;99.90;;;;;;10586870;28;20227;-80
2021/06/24 21:18:49;;;;;;;2.13;2.03;;;20.70;99.90;;;;;;10582884;28;20191;-81
2021/06/24 21:23:51;;;;;;;2.33;2.23;;;20.70;99.90;;;;;;10568121;28;20299;-81
2021/06/24 21:28:53;;;;;;;2.17;2.07;;;20.70;99.90;;;;;;10565990;28;20651;-81
2021/06/24 21:33:57;;;;;;;2.20;2.10;;;20.70;99.90;;;;;;10562157;28;20584;-81
2021/06/24 21:38:59;;;;;;;1.97;1.87;;;20.70;99.90;;;;;;10584079;28;20543;-80
2021/06/24 21:44:01;;;;;;;2.20;2.10;;;20.70;99.90;;;;;;10585877;28;20223;-81
2021/06/24 21:49:05;;;;;;;1.97;1.87;;;20.70;99.90;;;;;;10589779;28;20207;-81
2021/06/24 21:54:07;;;;;;;2.67;2.57;;;20.70;99.90;;;;;;10557124;28;20333;-81
2021/06/24 21:59:09;;;;;;;2.30;2.20;;;20.60;99.90;;;;;;10534546;28;20234;-80
2021/06/24 22:04:13;;;;;;;2.87;2.67;;;20.50;99.90;;;;;;10537573;28;20253;-81
2021/06/24 22:09:15;;;;;;;2.10;2.00;;;20.40;99.90;;;;;;10536601;28;20278;-82
2021/06/24 22:14:17;;;;;;;2.40;2.30;;;20.30;99.90;;;;;;10534821;28;20262;-82
2021/06/24 22:19:21;;;;;;;2.63;2.43;;;20.30;99.90;;;;;;10554948;28;20274;-81
2021/06/24 22:24:23;;;;;;;3.00;2.80;;;20.30;99.90;;;;;;10551188;28;20216;-82
2021/06/24 22:29:25;;;;;;;2.80;2.70;;;20.30;99.90;;;;;;10535939;28;20227;-81
2021/06/24 22:34:28;;;;;;;2.43;2.33;;;20.30;99.90;;;;;;10527812;28;20744;-81
2021/06/24 22:39:30;;;;;;;2.90;2.80;;;20.30;99.90;;;;;;10522686;28;20228;-81
2021/06/24 22:44:32;;;;;;;3.20;3.00;;;20.30;99.90;;;;;;10533267;28;20207;-81
2021/06/24 22:49:36;;;;;;;3.10;2.83;;;20.40;99.90;;;;;;10556595;28;20254;-81
2021/06/24 22:54:38;;;;;;;2.90;2.70;;;20.40;99.90;;;;;;10533794;28;20208;-82
2021/06/24 22:59:40;;;;;;;2.40;2.30;;;20.40;99.90;;;;;;10556542;28;20196;-82
2021/06/24 23:04:44;;;;;;;3.00;2.80;;;20.30;99.90;;;;;;10533465;28;20219;-82
2021/06/24 23:09:46;;;;;;;3.50;3.30;;;20.40;99.90;;;;;;10517571;28;20258;-81
2021/06/24 23:14:48;;;;;;;3.03;2.83;;;20.30;99.90;;;;;;10583269;23;20253;-83
2021/06/24 23:19:55;;;;;;;5.80;3.23;;;20.30;99.90;;;;;;10528432;28;20206;-83
2021/06/24 23:24:57;;;;;;;3.30;3.10;;;20.30;99.90;;;;;;10518042;28;20290;-83
2021/06/24 23:29:59;;;;;;;3.43;3.13;;;20.30;99.90;;;;;;10540628;28;20192;-83
2021/06/24 23:35:06;;;;;;;3.33;3.13;;;20.20;99.90;;;;;;10538092;28;20243;-83
2021/06/24 23:40:10;;;;;;;3.00;2.80;;;20.20;99.90;;;;;;10513546;28;20240;-83
2021/06/24 23:45:16;;;;;;;3.30;3.10;;;20.10;99.90;;;;;;10498492;28;20225;-83
2021/06/24 23:50:19;;;;;;;3.00;2.80;;;20.10;99.90;;;;;;10497367;28;20203;-83
2021/06/24 23:55:21;;;;;;;3.80;3.60;;;20.10;99.90;;;;;;10508568;28;20685;-83
